createdAt,value
2023-02-12T00:01:17.312Z,98386.16
2023-02-12T00:03:45.216Z,98382.69
2023-02-12T00:06:15.514Z,98392.59
2023-02-12T00:08:43.734Z,98395.22
2023-02-12T00:11:17.153Z,98390.28
2023-02-12T00:13:45.463Z,98393.00
2023-02-12T00:16:15.000Z,98390.72
2023-02-12T00:18:43.047Z,98378.06
2023-02-12T00:21:10.972Z,98386.44
2023-02-12T00:23:41.591Z,98393.16
2023-02-12T00:26:10.652Z,98392.91
2023-02-12T00:28:42.736Z,98384.38
2023-02-12T00:31:13.527Z,98399.16
2023-02-12T00:33:41.730Z,98389.69
2023-02-12T00:36:10.937Z,98394.09
2023-02-12T00:38:39.159Z,98388.50
2023-02-12T00:41:06.876Z,98390.84
2023-02-12T00:43:35.168Z,98389.59
2023-02-12T00:46:05.246Z,98395.19
2023-02-12T00:48:33.988Z,98388.28
2023-02-12T00:51:01.916Z,98374.56
2023-02-12T00:53:29.799Z,98392.09
2023-02-12T00:55:58.028Z,98395.28
2023-02-12T00:58:26.232Z,98398.66
2023-02-12T01:00:54.247Z,98396.72
2023-02-12T01:03:24.159Z,98390.41
2023-02-12T01:05:54.410Z,98391.44
2023-02-12T01:08:22.534Z,98397.16
2023-02-12T01:10:58.703Z,98396.47
2023-02-12T01:13:26.978Z,98398.56
2023-02-12T01:16:08.757Z,98392.56
2023-02-12T01:18:38.064Z,98386.16
2023-02-12T01:21:11.324Z,98391.53
2023-02-12T01:23:39.613Z,98378.69
2023-02-12T01:26:07.751Z,98390.66
2023-02-12T01:28:35.510Z,98381.75
2023-02-12T01:31:09.116Z,98369.16
2023-02-12T01:33:37.904Z,98367.75
2023-02-12T01:36:05.889Z,98370.16
2023-02-12T01:38:33.652Z,98376.50
2023-02-12T01:41:07.778Z,98372.72
2023-02-12T01:43:36.917Z,98371.44
2023-02-12T01:46:06.163Z,98366.63
2023-02-12T01:48:42.087Z,98360.06
2023-02-12T01:51:11.623Z,98363.63
2023-02-12T01:53:42.580Z,98363.50
2023-02-12T01:56:10.508Z,98350.97
2023-02-12T01:58:41.493Z,98353.53
2023-02-12T02:01:22.906Z,98351.34
2023-02-12T02:03:52.624Z,98349.69
2023-02-12T02:06:27.754Z,98348.94
2023-02-12T02:08:56.289Z,98340.44
2023-02-12T02:11:43.905Z,98343.06
2023-02-12T02:14:30.250Z,98350.28
2023-02-12T02:17:19.898Z,98352.53
2023-02-12T02:20:03.254Z,98348.19
2023-02-12T02:22:51.676Z,98346.34
2023-02-12T02:25:51.749Z,98352.34
2023-02-12T02:28:22.234Z,98359.94
2023-02-12T02:30:58.076Z,98356.84
2023-02-12T02:33:53.888Z,98352.75
2023-02-12T02:36:29.796Z,98360.19
2023-02-12T02:39:02.243Z,98364.34
2023-02-12T02:41:41.184Z,98366.97
2023-02-12T02:44:13.476Z,98371.88
2023-02-12T02:46:47.397Z,98377.16
2023-02-12T02:49:23.508Z,98375.56
2023-02-12T02:52:02.969Z,98387.44
2023-02-12T02:54:36.115Z,98384.28
2023-02-12T02:57:08.943Z,98384.06
2023-02-12T02:59:40.270Z,98380.88
2023-02-12T03:02:12.746Z,98390.22
2023-02-12T03:04:52.335Z,98385.44
2023-02-12T03:07:25.901Z,98383.25
2023-02-12T03:09:56.551Z,98373.97
2023-02-12T03:12:31.623Z,98383.06
2023-02-12T03:15:09.658Z,98395.56
2023-02-12T03:17:45.823Z,98390.38
2023-02-12T03:20:22.528Z,98378.06
2023-02-12T03:22:58.671Z,98375.75
2023-02-12T03:25:32.200Z,98366.13
2023-02-12T03:28:07.246Z,98369.47
2023-02-12T03:31:00.181Z,98366.44
2023-02-12T03:33:50.273Z,98355.66
2023-02-12T03:36:52.569Z,98359.38
2023-02-12T03:39:44.140Z,98363.16
2023-02-12T03:42:38.723Z,98357.38
2023-02-12T03:45:35.268Z,98358.56
2023-02-12T03:48:09.276Z,98375.56
2023-02-12T03:50:53.614Z,98372.84
2023-02-12T03:53:21.435Z,98378.31
2023-02-12T03:55:51.100Z,98365.81
2023-02-12T03:58:21.410Z,98378.19
2023-02-12T04:00:49.460Z,98378.56
2023-02-12T04:03:17.250Z,98380.38
2023-02-12T04:05:44.960Z,98379.56
2023-02-12T04:08:12.889Z,98385.59
2023-02-12T04:11:13.166Z,98376.66
2023-02-12T04:13:49.819Z,98386.69
2023-02-12T04:16:23.568Z,98385.09
2023-02-12T04:18:51.650Z,98366.81
2023-02-12T04:21:31.414Z,98365.38
2023-02-12T04:24:17.639Z,98386.72
2023-02-12T04:27:06.485Z,98360.88
2023-02-12T04:29:44.437Z,98358.78
2023-02-12T04:32:12.908Z,98379.19
2023-02-12T04:35:00.039Z,98372.47
2023-02-12T04:37:38.485Z,98367.19
2023-02-12T04:40:15.411Z,98364.75
2023-02-12T04:42:46.931Z,98394.41
2023-02-12T04:45:16.742Z,98377.75
2023-02-12T04:47:44.409Z,98380.28
2023-02-12T04:50:12.556Z,98392.44
2023-02-12T04:52:40.270Z,98391.06
2023-02-12T04:55:08.133Z,98391.88
2023-02-12T04:57:35.835Z,98393.78
2023-02-12T05:00:05.832Z,98392.13
2023-02-12T05:02:33.845Z,98393.50
2023-02-12T05:05:01.635Z,98401.72
2023-02-12T05:07:29.367Z,98393.09
2023-02-12T05:09:57.143Z,98402.44
2023-02-12T05:12:24.847Z,98388.00
2023-02-12T05:14:52.559Z,98386.72
2023-02-12T05:17:22.793Z,98396.91
2023-02-12T05:19:50.716Z,98393.97
2023-02-12T05:22:18.478Z,98387.53
2023-02-12T05:24:46.251Z,98399.59
2023-02-12T05:27:14.051Z,98402.03
2023-02-12T05:29:41.827Z,98398.03
2023-02-12T05:32:09.669Z,98396.38
2023-02-12T05:34:37.920Z,98399.81
2023-02-12T05:37:05.760Z,98408.09
2023-02-12T05:39:33.480Z,98419.31
2023-02-12T05:42:01.173Z,98426.13
2023-02-12T05:44:28.937Z,98424.88
2023-02-12T05:46:56.764Z,98422.41
2023-02-12T05:49:24.480Z,98425.59
2023-02-12T05:51:52.206Z,98427.16
2023-02-12T05:54:19.899Z,98431.00
2023-02-12T05:56:47.881Z,98427.84
2023-02-12T05:59:17.765Z,98431.41
2023-02-12T06:01:46.116Z,98425.31
2023-02-12T06:04:27.963Z,98439.69
2023-02-12T06:06:55.939Z,98429.31
2023-02-12T06:09:23.890Z,98430.19
2023-02-12T06:11:51.885Z,98433.88
2023-02-12T06:14:19.925Z,98431.03
2023-02-12T06:16:51.372Z,98442.09
2023-02-12T06:19:19.513Z,98438.00
2023-02-12T06:21:47.236Z,98445.81
2023-02-12T06:24:15.619Z,98448.81
2023-02-12T06:26:43.342Z,98450.19
2023-02-12T06:29:11.176Z,98458.78
2023-02-12T06:31:39.010Z,98456.44
2023-02-12T06:34:08.095Z,98454.19
2023-02-12T06:36:39.765Z,98447.19
2023-02-12T06:39:07.629Z,98451.41
2023-02-12T06:41:35.298Z,98457.72
2023-02-12T06:44:03.412Z,98452.13
2023-02-12T06:46:31.300Z,98448.75
2023-02-12T06:48:59.830Z,98447.88
2023-02-12T06:51:27.996Z,98454.66
2023-02-12T06:53:55.904Z,98455.50
2023-02-12T06:56:24.350Z,98461.03
2023-02-12T06:58:56.699Z,98457.03
2023-02-12T07:01:26.189Z,98446.75
2023-02-12T07:03:58.447Z,98457.94
2023-02-12T07:06:26.839Z,98446.56
2023-02-12T07:08:55.449Z,98457.94
2023-02-12T07:11:25.043Z,98445.25
2023-02-12T07:13:52.888Z,98469.56
2023-02-12T07:16:20.740Z,98465.91
2023-02-12T07:18:48.521Z,98470.56
2023-02-12T07:21:16.651Z,98469.78
2023-02-12T07:23:50.830Z,98459.69
2023-02-12T07:26:19.552Z,98464.13
2023-02-12T07:28:47.288Z,98476.81
2023-02-12T07:31:16.949Z,98478.28
2023-02-12T07:33:45.057Z,98480.22
2023-02-12T07:36:14.647Z,98476.53
2023-02-12T07:38:42.545Z,98476.84
2023-02-12T07:41:12.142Z,98478.47
2023-02-12T07:43:41.226Z,98481.66
2023-02-12T07:46:13.355Z,98484.25
2023-02-12T07:48:41.084Z,98492.75
2023-02-12T07:51:10.950Z,98486.44
2023-02-12T07:53:38.810Z,98480.03
2023-02-12T07:56:07.203Z,98486.44
2023-02-12T07:58:34.949Z,98477.00
2023-02-12T08:01:17.200Z,98485.66
2023-02-12T08:03:45.640Z,98485.31
2023-02-12T08:06:15.721Z,98480.28
2023-02-12T08:08:43.468Z,98474.97
2023-02-12T08:11:12.135Z,98483.50
2023-02-12T08:13:39.948Z,98485.38
2023-02-12T08:16:09.902Z,98488.84
2023-02-12T08:18:37.642Z,98490.31
2023-02-12T08:21:06.671Z,98489.31
2023-02-12T08:23:34.438Z,98489.31
2023-02-12T08:26:09.351Z,98496.69
2023-02-12T08:28:37.474Z,98491.59
2023-02-12T08:31:10.819Z,98505.81
2023-02-12T08:33:38.564Z,98500.28
2023-02-12T08:36:14.644Z,98501.78
2023-02-12T08:38:43.000Z,98520.50
2023-02-12T08:41:23.897Z,98517.66
2023-02-12T08:43:53.375Z,98525.84
2023-02-12T08:46:32.145Z,98521.38
2023-02-12T08:49:02.098Z,98526.41
2023-02-12T08:51:31.848Z,98534.84
2023-02-12T08:54:00.968Z,98520.28
2023-02-12T08:56:32.144Z,98536.50
2023-02-12T08:59:00.543Z,98531.72
2023-02-12T09:01:29.418Z,98523.78
2023-02-12T09:03:57.217Z,98527.25
2023-02-12T09:06:25.845Z,98532.47
2023-02-12T09:08:53.871Z,98536.56
2023-02-12T09:11:26.606Z,98536.00
2023-02-12T09:13:54.420Z,98540.44
2023-02-12T09:16:22.127Z,98547.34
2023-02-12T09:18:49.835Z,98546.47
2023-02-12T09:21:19.692Z,98561.28
2023-02-12T09:23:47.549Z,98557.72
2023-02-12T09:26:22.953Z,98562.25
2023-02-12T09:28:50.842Z,98550.06
2023-02-12T09:31:20.994Z,98553.81
2023-02-12T09:33:52.248Z,98548.44
2023-02-12T09:36:21.942Z,98556.81
2023-02-12T09:38:49.900Z,98553.59
2023-02-12T09:41:51.421Z,98564.78
2023-02-12T09:44:25.864Z,98570.47
2023-02-12T09:47:04.495Z,98573.59
2023-02-12T09:49:51.184Z,98575.06
2023-02-12T09:52:24.415Z,98581.13
2023-02-12T09:54:52.206Z,98579.91
2023-02-12T09:57:21.479Z,98580.22
2023-02-12T09:59:53.000Z,98584.44
2023-02-12T10:02:20.925Z,98580.09
2023-02-12T10:05:00.135Z,98588.91
2023-02-12T10:07:47.425Z,98586.03
2023-02-12T10:10:30.078Z,98594.28
2023-02-12T10:13:05.355Z,98594.25
2023-02-12T10:15:59.215Z,98602.16
2023-02-12T10:18:42.795Z,98595.16
2023-02-12T10:21:19.898Z,98591.06
2023-02-12T10:24:15.436Z,98591.06
2023-02-12T10:26:50.090Z,98588.91
2023-02-12T10:29:20.405Z,98602.91
2023-02-12T10:34:26.835Z,98599.75
2023-02-12T10:36:58.264Z,98601.28
2023-02-12T10:39:35.528Z,98599.63
2023-02-12T10:42:12.736Z,98597.06
2023-02-12T10:44:40.500Z,98593.25
2023-02-12T10:47:19.053Z,98608.38
2023-02-12T10:49:48.828Z,98603.72
2023-02-12T10:52:35.323Z,98616.53
2023-02-12T10:55:03.255Z,98603.84
2023-02-12T10:57:31.072Z,98607.56
2023-02-12T11:00:35.420Z,98600.34
2023-02-12T11:03:11.779Z,98616.28
2023-02-12T11:05:41.504Z,98602.00
2023-02-12T11:08:30.739Z,98600.97
2023-02-12T11:11:31.263Z,98610.91
2023-02-12T11:14:04.116Z,98618.16
2023-02-12T11:16:32.777Z,98613.66
2023-02-12T11:19:07.917Z,98608.84
2023-02-12T11:21:35.717Z,98613.56
2023-02-12T11:24:29.859Z,98609.53
2023-02-12T11:27:15.778Z,98604.38
2023-02-12T11:29:44.521Z,98602.34
2023-02-12T11:32:19.601Z,98604.31
2023-02-12T11:35:10.296Z,98614.13
2023-02-12T11:37:40.603Z,98617.69
2023-02-12T11:40:15.820Z,98615.72
2023-02-12T11:42:44.824Z,98610.44
2023-02-12T11:45:19.904Z,98613.25
2023-02-12T11:47:47.657Z,98605.78
2023-02-12T11:50:28.353Z,98614.63
2023-02-12T11:53:06.940Z,98619.56
2023-02-12T11:55:36.020Z,98618.97
2023-02-12T11:58:12.832Z,98610.28
2023-02-12T12:01:05.723Z,98612.75
2023-02-12T12:04:05.359Z,98619.50
2023-02-12T12:06:52.513Z,98611.88
2023-02-12T12:09:30.456Z,98615.13
2023-02-12T12:12:26.006Z,98629.00
2023-02-12T12:15:22.010Z,98620.59
2023-02-12T12:18:17.034Z,98623.63
2023-02-12T12:21:01.754Z,98630.88
2023-02-12T12:23:35.779Z,98621.88
2023-02-12T12:26:07.017Z,98622.09
2023-02-12T12:28:40.643Z,98620.28
2023-02-12T12:31:10.457Z,98614.91
2023-02-12T12:33:39.928Z,98614.09
2023-02-12T12:36:13.789Z,98622.34
2023-02-12T12:38:47.465Z,98610.94
2023-02-12T12:41:48.408Z,98614.56
2023-02-12T12:44:23.686Z,98613.06
2023-02-12T12:47:32.107Z,98619.09
2023-02-12T12:49:59.811Z,98621.28
2023-02-12T12:52:54.544Z,98632.16
2023-02-12T12:55:24.176Z,98636.66
2023-02-12T12:58:39.973Z,98637.03
2023-02-12T13:01:27.345Z,98626.41
2023-02-12T13:03:57.752Z,98637.53
2023-02-12T13:06:49.572Z,98639.31
2023-02-12T13:09:19.999Z,98644.28
2023-02-12T13:12:03.038Z,98646.91
2023-02-12T13:14:36.805Z,98654.72
2023-02-12T13:17:07.663Z,98662.94
2023-02-12T13:19:36.560Z,98663.56
2023-02-12T13:22:11.545Z,98662.72
2023-02-12T13:24:46.017Z,98673.38
2023-02-12T13:27:22.462Z,98666.75
2023-02-12T13:30:01.495Z,98675.25
2023-02-12T13:32:30.516Z,98678.25
2023-02-12T13:34:58.252Z,98686.47
2023-02-12T13:37:35.276Z,98679.66
2023-02-12T13:40:06.319Z,98688.81
2023-02-12T13:42:49.001Z,98692.09
2023-02-12T13:45:52.898Z,98695.34
2023-02-12T13:48:23.598Z,98697.38
2023-02-12T13:51:01.072Z,98705.53
2023-02-12T13:53:44.198Z,98710.91
2023-02-12T13:56:17.655Z,98711.16
2023-02-12T13:58:51.099Z,98707.72
2023-02-12T14:01:47.133Z,98706.38
2023-02-12T14:04:23.797Z,98710.31
2023-02-12T14:07:02.143Z,98715.63
2023-02-12T14:09:50.040Z,98716.69
2023-02-12T14:12:23.792Z,98720.19
2023-02-12T14:14:55.796Z,98713.19
2023-02-12T14:17:29.485Z,98726.84
2023-02-12T14:20:18.847Z,98732.75
2023-02-12T14:22:49.311Z,98737.06
2023-02-12T14:25:16.973Z,98738.13
2023-02-12T14:27:47.521Z,98743.03
2023-02-12T14:30:33.975Z,98745.75
2023-02-12T14:33:07.340Z,98751.00
2023-02-12T14:35:45.583Z,98761.56
2023-02-12T14:38:16.273Z,98759.53
2023-02-12T14:40:46.940Z,98765.53
2023-02-12T14:43:54.677Z,98767.34
2023-02-12T14:46:22.443Z,98776.09
2023-02-12T14:48:50.083Z,98773.94
2023-02-12T14:51:37.060Z,98787.47
2023-02-12T14:54:05.150Z,98787.38
2023-02-12T14:56:35.052Z,98795.81
2023-02-12T14:59:02.740Z,98792.59
2023-02-12T15:01:34.472Z,98792.88
2023-02-12T15:04:23.823Z,98803.81
2023-02-12T15:07:13.153Z,98804.47
2023-02-12T15:09:46.712Z,98803.84
2023-02-12T15:12:22.137Z,98810.78
2023-02-12T15:14:54.252Z,98808.94
2023-02-12T15:17:24.989Z,98814.06
2023-02-12T15:20:08.800Z,98820.97
2023-02-12T15:22:39.349Z,98824.34
2023-02-12T15:25:30.220Z,98823.19
2023-02-12T15:28:02.980Z,98828.75
2023-02-12T15:30:32.586Z,98837.38
2023-02-12T15:33:02.783Z,98833.66
2023-02-12T15:35:32.223Z,98841.75
2023-02-12T15:38:03.363Z,98840.59
2023-02-12T15:40:31.400Z,98847.63
2023-02-12T15:43:03.666Z,98859.13
2023-02-12T15:45:35.263Z,98863.72
2023-02-12T15:48:09.097Z,98863.25
2023-02-12T15:50:56.502Z,98878.91
2023-02-12T15:53:24.690Z,98875.34
2023-02-12T15:55:52.424Z,98874.50
2023-02-12T15:58:27.910Z,98879.63
2023-02-12T16:00:59.771Z,98887.06
2023-02-12T16:03:35.380Z,98892.19
2023-02-12T16:06:11.599Z,98894.53
2023-02-12T16:08:40.676Z,98902.69
2023-02-12T16:11:14.155Z,98899.22
2023-02-12T16:13:52.134Z,98907.63
2023-02-12T16:16:25.316Z,98920.81
2023-02-12T16:19:21.727Z,98911.75
2023-02-12T16:22:10.592Z,98919.28
2023-02-12T16:24:49.950Z,98921.50
2023-02-12T16:27:21.430Z,98930.56
2023-02-12T16:29:50.732Z,98930.41
2023-02-12T16:32:35.071Z,98938.91
2023-02-12T16:35:10.062Z,98939.03
2023-02-12T16:37:37.733Z,98944.88
2023-02-12T16:40:14.272Z,98947.56
2023-02-12T16:42:47.713Z,98956.50
2023-02-12T16:45:34.655Z,98959.25
2023-02-12T16:48:08.674Z,98967.69
2023-02-12T16:50:39.407Z,98975.44
2023-02-12T16:53:08.627Z,98979.13
2023-02-12T16:55:36.796Z,98980.19
2023-02-12T16:58:04.638Z,98986.84
2023-02-12T17:00:32.328Z,98992.25
2023-02-12T17:03:00.166Z,98993.72
2023-02-12T17:05:27.924Z,98995.47
2023-02-12T17:07:55.658Z,99001.38
2023-02-12T17:10:23.345Z,98992.22
2023-02-12T17:12:52.089Z,98992.63
2023-02-12T17:15:21.489Z,98997.56
2023-02-12T17:17:49.223Z,99003.50
2023-02-12T17:20:17.549Z,98996.03
2023-02-12T17:22:49.426Z,99005.41
2023-02-12T17:25:17.354Z,99011.34
2023-02-12T17:27:45.461Z,99007.44
2023-02-12T17:30:17.771Z,99003.41
2023-02-12T17:32:45.567Z,99004.00
2023-02-12T17:35:13.682Z,99014.91
2023-02-12T17:37:41.370Z,99003.03
2023-02-12T17:40:11.277Z,99005.19
2023-02-12T17:42:39.047Z,99012.75
2023-02-12T17:45:07.373Z,99019.19
2023-02-12T17:47:39.788Z,99022.97
2023-02-12T17:50:08.997Z,99026.72
2023-02-12T17:52:36.734Z,99023.91
2023-02-12T17:55:04.905Z,99022.81
2023-02-12T17:57:32.690Z,99042.44
2023-02-12T18:00:00.434Z,99042.28
2023-02-12T18:02:28.096Z,99037.06
2023-02-12T18:04:55.803Z,99040.41
2023-02-12T18:07:23.468Z,99050.09
2023-02-12T18:09:51.379Z,99053.72
2023-02-12T18:12:19.113Z,99045.00
2023-02-12T18:14:46.873Z,99054.91
2023-02-12T18:17:14.584Z,99053.97
2023-02-12T18:19:42.310Z,99051.97
2023-02-12T18:22:09.954Z,99058.56
2023-02-12T18:25:03.768Z,99054.94
2023-02-12T18:31:38.810Z,99056.53
2023-02-12T18:34:06.699Z,99057.34
2023-02-12T18:36:34.830Z,99060.41
2023-02-12T18:39:04.764Z,99062.59
2023-02-12T18:41:32.785Z,99072.38
2023-02-12T18:46:59.401Z,99073.53
2023-02-12T18:49:47.283Z,99072.38
2023-02-12T18:52:18.265Z,99084.31
2023-02-12T18:54:48.858Z,99083.28
2023-02-12T18:57:16.584Z,99075.53
2023-02-12T18:59:44.342Z,99076.88
2023-02-12T19:02:13.441Z,99072.41
2023-02-12T19:04:41.830Z,99078.88
2023-02-12T19:07:09.598Z,99079.09
2023-02-12T19:09:37.360Z,99072.66
2023-02-12T19:12:08.355Z,99080.38
2023-02-12T19:14:36.226Z,99074.84
2023-02-12T19:17:03.963Z,99080.25
2023-02-12T19:19:31.716Z,99074.69
2023-02-12T19:21:59.393Z,99078.84
2023-02-12T19:24:37.610Z,99078.59
2023-02-12T19:27:17.611Z,99078.94
2023-02-12T19:29:45.535Z,99085.75
2023-02-12T19:32:13.207Z,99089.81
2023-02-12T19:34:41.022Z,99085.72
2023-02-12T19:37:10.937Z,99086.59
2023-02-12T19:39:39.404Z,99088.50
2023-02-12T19:42:07.096Z,99091.38
2023-02-12T19:44:34.833Z,99098.66
2023-02-12T19:47:02.635Z,99094.19
2023-02-12T19:49:30.400Z,99089.94
2023-02-12T19:51:58.113Z,99105.31
2023-02-12T19:54:25.861Z,99111.75
2023-02-12T19:56:53.801Z,99121.16
2023-02-12T19:59:22.330Z,99114.69
2023-02-12T20:01:50.241Z,99106.47
2023-02-12T20:04:19.831Z,99110.22
2023-02-12T20:06:49.121Z,99107.28
2023-02-12T20:09:20.073Z,99102.72
2023-02-12T20:11:47.818Z,99104.94
2023-02-12T20:14:15.550Z,99099.84
2023-02-12T20:16:46.626Z,99107.19
2023-02-12T20:19:15.741Z,99102.25
2023-02-12T20:21:43.691Z,99111.19
2023-02-12T20:24:11.448Z,99118.34
2023-02-12T20:26:39.264Z,99120.50
2023-02-12T20:29:07.005Z,99113.97
2023-02-12T20:31:36.041Z,99128.56
2023-02-12T20:34:06.083Z,99132.69
2023-02-12T20:36:37.441Z,99133.84
2023-02-12T20:39:06.271Z,99135.66
2023-02-12T20:41:36.985Z,99137.97
2023-02-12T20:44:05.808Z,99135.53
2023-02-12T20:46:36.139Z,99144.19
2023-02-12T20:49:03.947Z,99159.19
2023-02-12T20:51:31.637Z,99151.38
2023-02-12T20:54:00.349Z,99152.78
2023-02-12T20:56:30.163Z,99158.69
2023-02-12T20:58:58.565Z,99158.31
2023-02-12T21:01:29.312Z,99167.06
2023-02-12T21:03:57.131Z,99168.81
2023-02-12T21:06:24.826Z,99162.19
2023-02-12T21:08:53.108Z,99163.16
2023-02-12T21:11:22.713Z,99159.47
2023-02-12T21:13:59.010Z,99162.81
2023-02-12T21:16:34.091Z,99165.47
2023-02-12T21:19:02.080Z,99168.41
2023-02-12T21:21:31.486Z,99166.13
2023-02-12T21:23:59.843Z,99169.53
2023-02-12T21:26:28.917Z,99168.19
2023-02-12T21:28:57.818Z,99172.88
2023-02-12T21:31:28.254Z,99173.44
2023-02-12T21:33:57.008Z,99173.09
2023-02-12T21:36:26.646Z,99182.59
2023-02-12T21:38:54.488Z,99190.03
2023-02-12T21:41:29.796Z,99193.69
2023-02-12T21:43:59.532Z,99200.88
2023-02-12T21:46:27.483Z,99207.56
2023-02-12T21:48:55.604Z,99194.97
2023-02-12T21:51:30.821Z,99194.19
2023-02-12T21:54:00.601Z,99191.66
2023-02-12T21:56:28.406Z,99189.84
2023-02-12T21:58:57.711Z,99196.63
2023-02-12T22:01:29.356Z,99192.16
2023-02-12T22:03:57.120Z,99192.28
2023-02-12T22:06:24.978Z,99195.28
2023-02-12T22:08:53.020Z,99201.94
2023-02-12T22:11:21.192Z,99207.84
2023-02-12T22:13:49.370Z,99212.97
2023-02-12T22:16:25.163Z,99210.94
2023-02-12T22:18:59.169Z,99215.94
2023-02-12T22:21:30.904Z,99212.63
2023-02-12T22:24:00.980Z,99210.06
2023-02-12T22:26:29.568Z,99209.47
2023-02-12T22:29:02.690Z,99215.59
2023-02-12T22:31:32.801Z,99214.53
2023-02-12T22:34:02.120Z,99212.84
2023-02-12T22:36:29.930Z,99207.38
2023-02-12T22:38:58.915Z,99217.25
2023-02-12T22:41:27.415Z,99210.50
2023-02-12T22:43:55.311Z,99213.28
2023-02-12T22:46:23.092Z,99214.38
2023-02-12T22:48:50.785Z,99214.88
2023-02-12T22:51:28.916Z,99212.31
2023-02-12T22:53:56.729Z,99204.75
2023-02-12T22:56:24.606Z,99200.31
2023-02-12T22:58:56.443Z,99204.75
2023-02-12T23:01:24.440Z,99205.56
2023-02-12T23:03:52.446Z,99210.81
2023-02-12T23:06:22.128Z,99220.59
2023-02-12T23:08:51.006Z,99224.25
2023-02-12T23:11:19.032Z,99234.66
2023-02-12T23:13:46.928Z,99235.28
2023-02-12T23:16:14.765Z,99236.09
2023-02-12T23:18:42.792Z,99243.88
2023-02-12T23:21:10.507Z,99245.72
2023-02-12T23:23:38.292Z,99244.91
2023-02-12T23:26:06.177Z,99249.66
2023-02-12T23:28:33.958Z,99244.88
2023-02-12T23:31:02.057Z,99242.94
2023-02-12T23:33:30.203Z,99247.53
2023-02-12T23:35:57.955Z,99250.25
2023-02-12T23:38:25.681Z,99250.75
2023-02-12T23:40:53.430Z,99248.00
2023-02-12T23:43:21.251Z,99242.47
2023-02-12T23:45:49.026Z,99247.69
2023-02-12T23:48:16.788Z,99248.09
2023-02-12T23:50:46.670Z,99233.53
2023-02-12T23:53:15.012Z,99241.84
2023-02-12T23:55:42.741Z,99242.53
2023-02-12T23:58:10.509Z,99238.00
